Time;durP1;ratioP1;P1;durP2;ratioP2;P2;SDS_P1;SDS_P2;PMS_P1;PMS_P2;Temp;Humidity;BMP_temperature;BMP_pressure;BME280_temperature;BME280_humidity;BME280_pressure;Samples;Min_cycle;Max_cycle;Signal;HPM_P1;HPM_P2
2022/11/23 00:01:36;;;;;;;9.25;4.05;;;;;;;10.71;87.10;98912.53;5067159;28;20539;-29
2022/11/23 00:04:04;;;;;;;6.72;3.13;;;;;;;10.79;87.24;98911.28;5067378;28;20033;-30
2022/11/23 00:06:30;;;;;;;;;;;;;;;10.87;86.74;98902.84;5049753;28;20385;-27
2022/11/23 00:08:55;;;;;;;10.10;3.70;;;;;;;10.88;86.20;98892.97;5067452;28;19918;-26
2022/11/23 00:11:23;;;;;;;5.88;3.28;;;;;;;10.81;85.67;98877.97;5067357;28;20047;-27
2022/11/23 00:13:50;;;;;;;11.20;4.68;;;;;;;10.83;85.73;98870.53;5048668;28;20067;-27
2022/11/23 00:16:20;;;;;;;7.05;3.50;;;;;;;10.93;86.54;98877.03;5066858;28;20036;-27
2022/11/23 00:18:46;;;;;;;8.13;3.33;;;;;;;11.04;85.48;98873.41;5067102;28;20108;-26
2022/11/23 00:21:14;;;;;;;7.10;3.67;;;;;;;11.00;85.74;98867.78;5049060;28;20044;-27
2022/11/23 00:23:40;;;;;;;8.23;3.10;;;;;;;10.94;86.03;98860.78;5067004;28;20029;-29
2022/11/23 00:26:06;;;;;;;6.85;3.40;;;;;;;10.96;85.73;98847.19;5048551;28;20040;-27
2022/11/23 00:28:32;;;;;;;7.00;3.33;;;;;;;11.01;86.38;98856.06;5048777;28;20032;-27
2022/11/23 00:30:57;;;;;;;7.15;3.50;;;;;;;10.93;86.25;98837.84;5048789;28;20028;-28
2022/11/23 00:33:23;;;;;;;8.00;3.88;;;;;;;10.95;87.13;98867.75;5067058;28;20028;-30
2022/11/23 00:36:01;;;;;;;7.20;3.50;;;;;;;11.16;86.28;98863.41;5048594;28;20078;-27
2022/11/23 00:38:27;;;;;;;7.68;3.65;;;;;;;10.98;86.96;98856.56;5067025;28;20060;-28
2022/11/23 00:41:06;;;;;;;6.78;2.95;;;;;;;11.11;87.25;98855.34;5066738;28;20550;-27
2022/11/23 00:43:32;;;;;;;8.38;4.00;;;;;;;10.98;87.93;98840.53;5067222;28;20113;-26
2022/11/23 00:46:06;;;;;;;9.30;3.33;;;;;;;11.04;88.38;98838.75;5066496;28;20037;-30
2022/11/23 00:48:32;;;;;;;9.05;3.65;;;;;;;11.17;88.47;98846.31;5066773;28;20107;-28
2022/11/23 00:51:00;;;;;;;9.10;3.55;;;;;;;11.13;88.70;98842.53;5048591;28;20052;-30
2022/11/23 00:53:26;;;;;;;6.90;3.10;;;;;;;11.05;88.99;98835.00;5048755;28;20039;-27
2022/11/23 00:55:55;;;;;;;7.05;3.47;;;;;;;11.04;88.76;98825.41;5066312;28;20408;-27
2022/11/23 00:58:21;;;;;;;6.75;3.30;;;;;;;10.73;90.21;98829.63;5048774;28;20518;-26
2022/11/23 01:00:47;;;;;;;9.80;4.50;;;;;;;10.83;89.91;98833.19;5066916;28;20052;-26
2022/11/23 01:03:13;;;;;;;6.95;3.78;;;;;;;10.80;89.98;98817.69;5071143;28;20111;-26
2022/11/23 01:05:39;;;;;;;8.05;4.30;;;;;;;10.73;90.69;98805.63;5052589;28;20105;-26
2022/11/23 01:08:05;;;;;;;10.13;4.45;;;;;;;10.69;91.77;98820.50;5070360;28;20435;-28
2022/11/23 01:10:31;;;;;;;7.63;4.03;;;;;;;10.75;91.69;98814.97;5070427;28;20039;-27
2022/11/23 01:12:57;;;;;;;8.43;4.25;;;;;;;10.70;92.08;98822.91;5071038;28;20040;-26
2022/11/23 01:15:23;;;;;;;9.95;4.78;;;;;;;10.70;91.58;98788.25;5070733;28;20028;-26
2022/11/23 01:17:49;;;;;;;9.98;4.35;;;;;;;10.73;92.49;98801.09;5070324;28;20043;-29
2022/11/23 01:20:14;;;;;;;7.40;3.83;;;;;;;10.89;91.80;98803.91;5070357;28;20028;-26
2022/11/23 01:22:40;;;;;;;7.20;4.05;;;;;;;10.82;92.28;98794.22;5070230;28;20058;-31
2022/11/23 01:25:06;;;;;;;7.78;4.18;;;;;;;10.60;93.20;98790.81;5052166;28;20043;-26
2022/11/23 01:27:31;;;;;;;8.57;4.75;;;;;;;10.76;93.29;98807.78;5070157;28;20020;-26
2022/11/23 01:29:57;;;;;;;8.85;4.75;;;;;;;10.60;94.62;98818.28;5051974;28;20021;-28
2022/11/23 01:32:22;;;;;;;8.70;3.97;;;;;;;10.49;95.00;98797.09;5070036;28;20754;-27
2022/11/23 01:34:48;;;;;;;11.20;4.85;;;;;;;10.43;96.85;98813.00;5070232;28;20511;-28
2022/11/23 01:37:13;;;;;;;7.85;4.07;;;;;;;10.44;97.73;98809.31;5070013;28;20024;-28
2022/11/23 01:39:39;;;;;;;12.50;4.45;;;;;;;10.41;99.37;98822.31;5069691;28;20058;-27
2022/11/23 01:42:07;;;;;;;8.50;4.43;;;;;;;10.26;100.00;98822.91;5051573;28;20093;-28
2022/11/23 01:44:34;;;;;;;10.68;5.07;;;;;;;10.24;100.00;98811.69;5052188;28;20051;-29
2022/11/23 01:47:07;;;;;;;9.20;4.45;;;;;;;10.34;100.00;98808.34;5069754;28;20397;-30
2022/11/23 01:49:39;;;;;;;10.02;4.88;;;;;;;10.28;100.00;98804.81;5069343;28;20045;-27
2022/11/23 01:52:10;;;;;;;8.23;4.35;;;;;;;10.39;100.00;98789.78;5069219;28;20028;-27
2022/11/23 01:54:42;;;;;;;12.02;5.55;;;;;;;10.60;100.00;98806.78;5069878;28;20040;-27
2022/11/23 01:57:20;;;;;;;10.57;5.32;;;;;;;10.56;100.00;98789.69;5069948;28;20173;-26
2022/11/23 01:59:46;;;;;;;8.60;5.10;;;;;;;10.48;100.00;98795.47;5069640;28;20122;-28
2022/11/23 02:02:13;;;;;;;14.13;6.30;;;;;;;10.29;100.00;98782.44;5051673;28;20266;-27
2022/11/23 02:04:41;;;;;;;14.02;6.63;;;;;;;10.38;100.00;98783.66;5069341;28;20063;-26
2022/11/23 02:07:07;;;;;;;11.23;5.70;;;;;;;10.26;100.00;98773.06;5069736;28;20222;-27
2022/11/23 02:09:34;;;;;;;10.80;5.78;;;;;;;10.25;100.00;98741.34;5069317;28;20082;-26
2022/11/23 02:12:00;;;;;;;10.15;5.32;;;;;;;10.32;100.00;98723.34;5068626;28;20103;-28
2022/11/23 02:14:26;;;;;;;10.90;5.40;;;;;;;10.24;100.00;98739.75;5069394;28;20025;-30
2022/11/23 02:16:51;;;;;;;10.15;5.45;;;;;;;10.21;100.00;98734.91;5051249;28;20029;-26
2022/11/23 02:19:28;;;;;;;10.38;5.35;;;;;;;10.45;100.00;98749.59;5069226;28;20025;-27
2022/11/23 02:21:54;;;;;;;9.40;5.13;;;;;;;10.42;100.00;98725.28;5069279;28;20024;-29
2022/11/23 02:24:27;;;;;;;10.93;5.78;;;;;;;10.41;100.00;98726.38;5069411;28;20036;-29
2022/11/23 02:26:53;;;;;;;12.68;5.93;;;;;;;10.24;100.00;98721.09;5050975;28;20045;-28
2022/11/23 02:29:26;;;;;;;13.18;6.82;;;;;;;10.36;100.00;98742.28;5051228;28;20435;-26
2022/11/23 02:31:52;;;;;;;14.63;6.57;;;;;;;10.32;100.00;98734.00;5050588;28;20036;-27
2022/11/23 02:34:18;;;;;;;14.38;6.20;;;;;;;10.19;100.00;98737.00;5069080;28;20028;-28
2022/11/23 02:36:48;;;;;;;13.18;6.55;;;;;;;10.23;100.00;98730.13;5069166;28;20561;-28
2022/11/23 02:39:31;;;;;;;15.50;6.78;;;;;;;10.26;100.00;98726.97;5069090;28;20028;-27
2022/11/23 02:41:57;;;;;;;13.35;6.18;;;;;;;10.01;100.00;98725.63;5068555;28;20039;-28
2022/11/23 02:44:50;;;;;;;11.80;5.97;;;;;;;10.08;100.00;98708.66;5069067;28;20032;-29
2022/11/23 02:47:15;;;;;;;12.05;6.00;;;;;;;10.19;100.00;98723.69;5050859;28;20035;-30
2022/11/23 02:49:44;;;;;;;11.77;6.13;;;;;;;10.27;100.00;98707.25;5068717;28;20045;-33
2022/11/23 02:52:09;;;;;;;13.45;6.68;;;;;;;10.13;100.00;98704.19;5050199;28;20120;-27
2022/11/23 02:54:35;;;;;;;11.75;6.00;;;;;;;10.12;100.00;98712.44;5068409;28;20036;-31
2022/11/23 02:57:00;;;;;;;12.93;6.10;;;;;;;10.13;100.00;98692.72;5068551;28;20068;-27
2022/11/23 02:59:26;;;;;;;13.52;6.80;;;;;;;10.22;100.00;98700.03;5050628;28;20123;-29
2022/11/23 03:01:51;;;;;;;11.90;5.53;;;;;;;10.19;100.00;98683.72;5068403;28;20021;-27
2022/11/23 03:04:17;;;;;;;14.20;6.25;;;;;;;10.10;100.00;98690.56;5068464;28;20039;-27
2022/11/23 03:06:43;;;;;;;11.98;5.85;;;;;;;10.18;100.00;98682.94;5068374;28;20758;-31
2022/11/23 03:09:08;;;;;;;12.02;5.90;;;;;;;10.32;100.00;98703.88;5068481;28;20498;-29
2022/11/23 03:11:34;;;;;;;9.55;5.30;;;;;;;10.20;100.00;98698.69;5068471;28;20086;-29
2022/11/23 03:13:59;;;;;;;11.02;4.97;;;;;;;10.38;100.00;98698.38;5068236;28;20074;-28
2022/11/23 03:16:25;;;;;;;11.77;5.55;;;;;;;10.26;100.00;98687.81;5068266;28;20506;-27
2022/11/23 03:18:50;;;;;;;11.40;5.32;;;;;;;10.24;100.00;98675.81;5068353;28;20105;-27
2022/11/23 03:21:16;;;;;;;10.88;5.10;;;;;;;10.52;100.00;98698.78;5068198;28;20055;-32
2022/11/23 03:23:42;;;;;;;13.68;5.00;;;;;;;10.58;100.00;98707.59;5066867;28;20109;-30
2022/11/23 03:26:08;;;;;;;11.95;5.43;;;;;;;10.26;100.00;98695.00;5068078;28;20025;-27
2022/11/23 03:28:33;;;;;;;16.25;5.72;;;;;;;10.38;100.00;98693.03;5067923;28;20028;-27
2022/11/23 03:30:59;;;;;;;10.75;5.53;;;;;;;10.31;100.00;98684.44;5068141;28;20408;-28
2022/11/23 03:33:24;;;;;;;11.82;5.40;;;;;;;10.31;100.00;98683.63;5068011;28;20037;-27
2022/11/23 03:35:49;;;;;;;12.63;5.05;;;;;;;10.51;100.00;98697.16;5067510;28;20032;-26
2022/11/23 03:38:15;;;;;;;10.70;5.68;;;;;;;10.20;100.00;98680.03;5067877;28;20055;-29
2022/11/23 03:40:44;;;;;;;11.45;4.72;;;;;;;10.25;100.00;98672.06;5049484;28;20491;-27
2022/11/23 03:43:10;;;;;;;12.27;4.80;;;;;;;10.33;100.00;98690.31;5068003;28;20025;-27
2022/11/23 03:45:35;;;;;;;10.10;5.47;;;;;;;10.30;100.00;98677.50;5049585;28;20059;-28
2022/11/23 03:48:00;;;;;;;10.65;5.80;;;;;;;10.18;100.00;98666.16;5086525;28;20047;-27
2022/11/23 03:50:28;;;;;;;10.93;5.57;;;;;;;10.28;100.00;98671.59;5069250;28;20056;-28
2022/11/23 03:52:54;;;;;;;11.43;5.95;;;;;;;10.15;100.00;98659.44;5087606;28;20024;-26
2022/11/23 03:55:19;;;;;;;10.70;5.55;;;;;;;10.16;100.00;98662.94;5087779;28;20043;-29
2022/11/23 03:57:47;;;;;;;12.45;5.63;;;;;;;10.32;100.00;98671.91;5087793;28;20129;-28
2022/11/23 04:00:13;;;;;;;15.93;5.40;;;;;;;10.28;100.00;98660.94;5088051;28;20111;-30
2022/11/23 04:02:39;;;;;;;10.63;5.50;;;;;;;10.40;100.00;98680.28;5087585;28;20771;-26
2022/11/23 04:05:05;;;;;;;12.00;5.63;;;;;;;10.42;100.00;98686.16;5069379;28;20028;-28
2022/11/23 04:07:31;;;;;;;12.82;6.07;;;;;;;10.68;100.00;98699.69;5069030;28;20404;-27
2022/11/23 04:09:56;;;;;;;11.00;6.43;;;;;;;10.66;100.00;98696.50;5087341;28;20596;-26
2022/11/23 04:12:22;;;;;;;14.50;6.47;;;;;;;10.58;100.00;98699.59;5087659;28;20028;-31
2022/11/23 04:14:47;;;;;;;15.43;6.93;;;;;;;10.59;100.00;98687.91;5069184;28;20027;-29
2022/11/23 04:17:13;;;;;;;11.15;5.70;;;;;;;10.76;100.00;98715.25;5087343;28;20032;-30
2022/11/23 04:19:38;;;;;;;13.18;6.88;;;;;;;10.48;100.00;98704.84;5087217;28;20027;-29
2022/11/23 04:22:03;;;;;;;13.05;6.00;;;;;;;10.23;100.00;98663.53;5086757;28;20024;-28
2022/11/23 04:24:29;;;;;;;15.02;7.57;;;;;;;10.37;100.00;98675.44;5087334;28;20620;-28
2022/11/23 04:26:54;;;;;;;27.73;14.55;;;;;;;10.32;100.00;98680.72;5069236;28;20113;-27
2022/11/23 04:29:20;;;;;;;12.90;6.10;;;;;;;10.50;100.00;98684.06;5087177;28;20471;-27
2022/11/23 04:31:45;;;;;;;19.15;8.75;;;;;;;10.64;100.00;98703.94;5087110;28;20384;-27
2022/11/23 04:34:10;;;;;;;20.48;9.80;;;;;;;10.61;100.00;98701.78;5086980;28;20102;-28
2022/11/23 04:36:36;;;;;;;11.63;6.35;;;;;;;10.69;100.00;98706.66;5086917;28;20400;-28
2022/11/23 04:39:03;;;;;;;10.23;5.07;;;;;;;10.60;100.00;98694.81;5068967;28;20058;-27
2022/11/23 04:41:29;;;;;;;9.25;5.35;;;;;;;10.88;100.00;98716.97;5068739;28;20036;-29
2022/11/23 04:43:54;;;;;;;14.90;7.47;;;;;;;10.93;100.00;98719.66;5086819;28;20035;-29
2022/11/23 04:46:20;;;;;;;12.63;5.80;;;;;;;11.00;100.00;98715.72;5087000;28;20777;-28
2022/11/23 04:48:45;;;;;;;14.90;5.90;;;;;;;11.01;100.00;98719.19;5086934;28;20093;-28
2022/11/23 04:51:12;;;;;;;14.23;7.28;;;;;;;11.01;100.00;98711.19;5086758;28;20028;-30
2022/11/23 04:53:38;;;;;;;12.27;5.68;;;;;;;11.00;100.00;98725.59;5068710;28;20493;-29
2022/11/23 04:56:03;;;;;;;11.13;6.47;;;;;;;10.66;100.00;98715.16;5086918;28;20558;-32
2022/11/23 04:58:29;;;;;;;13.10;6.03;;;;;;;10.83;100.00;98731.84;5086833;28;20035;-31
2022/11/23 05:00:56;;;;;;;11.32;6.38;;;;;;;10.83;100.00;98721.19;5087042;28;20026;-29
2022/11/23 05:03:21;;;;;;;11.70;6.97;;;;;;;10.81;100.00;98709.97;5086714;28;20032;-27
2022/11/23 05:05:47;;;;;;;14.43;7.35;;;;;;;10.66;100.00;98685.81;5086862;28;20070;-29
2022/11/23 05:08:12;;;;;;;13.35;6.72;;;;;;;10.67;100.00;98695.44;5068723;28;20108;-27
2022/11/23 05:10:38;;;;;;;12.27;6.18;;;;;;;10.57;100.00;98687.34;5087035;28;20358;-29
2022/11/23 05:13:03;;;;;;;12.55;7.38;;;;;;;10.48;100.00;98680.84;5086879;28;20093;-28
2022/11/23 05:15:29;;;;;;;12.10;7.13;;;;;;;10.38;100.00;98709.03;5086740;28;20104;-29
2022/11/23 05:18:05;;;;;;;15.88;6.95;;;;;;;10.49;100.00;98741.91;5086225;28;20095;-32
2022/11/23 05:20:30;;;;;;;12.43;6.85;;;;;;;10.48;100.00;98742.16;5068574;28;20089;-27
2022/11/23 05:22:56;;;;;;;16.40;7.50;;;;;;;10.38;100.00;98724.19;5086836;28;20032;-27
2022/11/23 05:25:21;;;;;;;14.75;8.05;;;;;;;10.53;100.00;98723.56;5068476;28;20491;-27
2022/11/23 05:27:46;;;;;;;18.23;8.88;;;;;;;10.44;100.00;98707.19;5086664;28;20591;-27
2022/11/23 05:30:12;;;;;;;15.75;8.60;;;;;;;10.44;100.00;98720.53;5068395;28;20032;-32
2022/11/23 05:32:38;;;;;;;12.20;7.40;;;;;;;10.39;100.00;98728.47;5086735;28;20028;-33
2022/11/23 05:35:04;;;;;;;10.35;5.90;;;;;;;10.42;100.00;98757.28;5086295;28;20089;-26
2022/11/23 05:37:29;;;;;;;11.98;5.85;;;;;;;10.55;100.00;98732.13;5086805;28;20399;-32
2022/11/23 05:39:54;;;;;;;14.05;7.93;;;;;;;10.55;100.00;98735.56;5086593;28;20398;-29
2022/11/23 05:42:20;;;;;;;14.13;7.80;;;;;;;10.49;100.00;98725.13;5086529;28;20024;-27
2022/11/23 05:44:45;;;;;;;14.60;8.18;;;;;;;10.57;100.00;98743.34;5068287;28;20036;-27
2022/11/23 05:47:11;;;;;;;17.90;9.18;;;;;;;10.66;100.00;98747.13;5087210;28;20027;-28
2022/11/23 05:49:36;;;;;;;17.92;9.20;;;;;;;10.50;100.00;98764.88;5089984;28;20067;-27
2022/11/23 05:52:02;;;;;;;15.45;8.57;;;;;;;10.41;100.00;98739.69;5090247;28;20059;-29
2022/11/23 05:54:27;;;;;;;16.38;9.07;;;;;;;10.47;100.00;98759.22;5090214;28;20028;-29
2022/11/23 05:56:52;;;;;;;15.48;10.02;;;;;;;10.64;100.00;98775.91;5089973;28;20024;-28
2022/11/23 05:59:18;;;;;;;14.57;9.25;;;;;;;10.30;100.00;98744.13;5071728;28;20479;-32
2022/11/23 06:01:43;;;;;;;15.43;9.70;;;;;;;10.41;100.00;98767.16;5089678;28;20024;-27
2022/11/23 06:04:08;;;;;;;16.23;9.70;;;;;;;10.34;100.00;98771.88;5071526;28;20050;-27
2022/11/23 06:06:34;;;;;;;16.10;10.15;;;;;;;10.35;100.00;98762.81;5090077;28;20028;-28
2022/11/23 06:08:59;;;;;;;18.80;10.20;;;;;;;10.28;100.00;98740.88;5090023;28;20491;-29
2022/11/23 06:11:25;;;;;;;20.55;10.82;;;;;;;10.23;100.00;98759.44;5090010;28;20407;-30
2022/11/23 06:13:50;;;;;;;19.60;11.18;;;;;;;10.12;100.00;98725.75;5089879;28;20123;-29
2022/11/23 06:16:16;;;;;;;18.65;10.80;;;;;;;10.36;100.00;98727.13;5089724;28;20028;-31
2022/11/23 06:18:41;;;;;;;20.38;12.02;;;;;;;10.32;100.00;98703.88;5089742;28;20062;-27
2022/11/23 06:21:07;;;;;;;18.05;11.00;;;;;;;10.38;100.00;98717.03;5089963;28;20176;-26
2022/11/23 06:23:32;;;;;;;21.05;12.52;;;;;;;10.55;100.00;98740.13;5089977;28;20736;-28
2022/11/23 06:26:01;;;;;;;20.45;12.48;;;;;;;10.49;100.00;98743.78;5071118;28;20031;-27
2022/11/23 06:28:27;;;;;;;24.58;14.57;;;;;;;10.54;100.00;98754.47;5089661;28;20034;-29
2022/11/23 06:30:54;;;;;;;24.80;13.60;;;;;;;10.41;100.00;98751.16;5089387;28;20032;-28
2022/11/23 06:33:20;;;;;;;19.98;12.82;;;;;;;10.59;100.00;98763.34;5070983;28;20063;-26
2022/11/23 06:35:52;;;;;;;19.52;12.82;;;;;;;10.32;100.00;98760.66;5089206;28;20453;-28
2022/11/23 06:38:18;;;;;;;19.17;11.90;;;;;;;10.38;100.00;98762.31;5089230;28;20020;-30
2022/11/23 06:40:43;;;;;;;19.80;12.82;;;;;;;10.34;100.00;98755.06;5089121;28;20024;-28
2022/11/23 06:43:09;;;;;;;21.05;11.98;;;;;;;10.54;100.00;98768.63;5089105;28;20032;-27
2022/11/23 06:45:34;;;;;;;20.85;11.45;;;;;;;10.45;100.00;98762.91;5070700;28;20039;-27
2022/11/23 06:47:59;;;;;;;16.92;11.15;;;;;;;10.39;100.00;98800.44;5088600;28;20442;-29
2022/11/23 06:50:25;;;;;;;18.98;11.32;;;;;;;10.59;100.00;98810.53;5067375;28;20048;-29
2022/11/23 06:52:55;;;;;;;18.98;11.02;;;;;;;10.39;100.00;98795.09;5068833;28;20067;-27
2022/11/23 06:55:21;;;;;;;22.48;11.60;;;;;;;10.64;100.00;98813.25;5068910;28;20032;-28
2022/11/23 06:57:46;;;;;;;29.58;17.65;;;;;;;10.45;100.00;98799.44;5066858;28;20086;-28
2022/11/23 07:00:12;;;;;;;20.17;11.50;;;;;;;10.62;100.00;98802.03;5068649;28;20032;-29
2022/11/23 07:02:38;;;;;;;18.13;10.70;;;;;;;10.63;100.00;98788.44;5068265;28;20025;-29
2022/11/23 07:05:03;;;;;;;23.85;11.25;;;;;;;10.68;100.00;98790.34;5067417;28;20040;-28
2022/11/23 07:07:29;;;;;;;17.75;11.68;;;;;;;10.83;100.00;98809.19;5068332;28;20029;-30
2022/11/23 07:09:54;;;;;;;20.27;12.27;;;;;;;10.94;99.52;98827.97;5068409;28;20468;-27
2022/11/23 07:12:20;;;;;;;22.08;13.50;;;;;;;11.07;98.42;98830.22;5068440;28;20036;-27
2022/11/23 07:14:45;;;;;;;21.95;12.00;;;;;;;10.73;98.63;98803.75;5068239;28;20486;-28
2022/11/23 07:17:11;;;;;;;17.65;11.30;;;;;;;10.96;98.38;98815.19;5067976;28;20937;-28
2022/11/23 07:19:36;;;;;;;17.20;10.38;;;;;;;10.90;98.06;98792.97;5066935;28;20743;-29
2022/11/23 07:22:01;;;;;;;17.73;12.32;;;;;;;10.79;98.19;98792.09;5067989;28;20024;-29
2022/11/23 07:24:27;;;;;;;17.90;11.48;;;;;;;10.83;99.44;98801.19;5068156;28;20036;-28
2022/11/23 07:26:52;;;;;;;19.13;12.25;;;;;;;11.02;99.09;98806.19;5068160;28;20024;-27
2022/11/23 07:29:18;;;;;;;17.33;9.68;;;;;;;11.06;97.30;98799.28;5067980;28;20025;-29
2022/11/23 07:31:43;;;;;;;17.45;9.77;;;;;;;10.97;98.08;98806.09;5067702;28;20024;-27
2022/11/23 07:34:09;;;;;;;14.73;9.15;;;;;;;11.25;96.71;98797.81;5068320;28;20029;-29
2022/11/23 07:36:35;;;;;;;13.13;8.05;;;;;;;11.57;94.97;98812.25;5068183;28;20032;-26
2022/11/23 07:39:01;;;;;;;16.98;9.35;;;;;;;11.46;95.99;98814.84;5066745;28;20062;-31
2022/11/23 07:41:26;;;;;;;16.35;10.25;;;;;;;11.69;95.45;98812.03;5067939;28;20863;-27
2022/11/23 07:43:52;;;;;;;19.63;10.40;;;;;;;11.67;95.97;98820.31;5066272;28;20089;-28
2022/11/23 07:46:17;;;;;;;15.05;9.63;;;;;;;11.81;94.47;98818.00;5067326;28;20025;-28
2022/11/23 07:48:43;;;;;;;15.85;9.63;;;;;;;12.02;93.25;98822.44;5071330;28;20405;-27
2022/11/23 07:51:08;;;;;;;17.15;9.57;;;;;;;11.58;95.31;98830.66;5087907;28;20036;-31
2022/11/23 07:53:35;;;;;;;20.23;10.98;;;;;;;11.52;95.73;98833.53;5088044;28;20024;-26
2022/11/23 07:56:01;;;;;;;17.55;9.88;;;;;;;11.46;95.94;98824.69;5087584;28;20053;-29
2022/11/23 07:58:27;;;;;;;17.90;9.85;;;;;;;11.51;95.45;98814.06;5087568;28;20055;-31
2022/11/23 08:00:53;;;;;;;18.45;9.20;;;;;;;11.60;95.38;98823.19;5069044;28;20023;-28
2022/11/23 08:03:19;;;;;;;19.33;9.30;;;;;;;11.59;95.75;98829.59;5087568;28;20047;-28
2022/11/23 08:05:44;;;;;;;16.02;9.55;;;;;;;11.57;95.80;98826.38;5069219;28;20024;-26
2022/11/23 08:08:10;;;;;;;16.60;8.70;;;;;;;11.40;95.10;98807.00;5087550;28;20043;-27
2022/11/23 08:10:36;;;;;;;15.57;9.00;;;;;;;11.72;95.02;98806.19;5087157;28;20034;-29
2022/11/23 08:13:05;;;;;;;16.50;9.10;;;;;;;11.56;94.86;98790.06;5069158;28;20415;-27
2022/11/23 08:15:31;;;;;;;14.32;8.75;;;;;;;11.64;93.85;98794.91;5087324;28;20077;-31
2022/11/23 08:18:00;;;;;;;15.13;9.40;;;;;;;11.89;94.20;98806.06;5087522;28;20032;-28
2022/11/23 08:20:27;;;;;;;23.90;9.75;;;;;;;12.01;93.98;98820.84;5087433;28;20107;-29
2022/11/23 08:22:54;;;;;;;17.35;9.45;;;;;;;12.06;93.91;98817.38;5069223;28;20118;-29
2022/11/23 08:25:21;;;;;;;14.82;8.45;;;;;;;12.06;93.51;98828.88;5068920;28;20055;-32
2022/11/23 08:27:46;;;;;;;19.35;8.77;;;;;;;12.17;92.81;98834.28;5068863;28;20032;-28
2022/11/23 08:30:12;;;;;;;16.20;9.23;;;;;;;12.37;91.99;98839.72;5068689;28;20028;-27
2022/11/23 08:32:38;;;;;;;13.35;7.90;;;;;;;12.45;91.48;98839.22;5087532;28;20156;-31
2022/11/23 08:35:04;;;;;;;16.92;9.20;;;;;;;12.42;91.42;98815.69;5068759;28;20449;-29
2022/11/23 08:37:29;;;;;;;16.15;9.07;;;;;;;12.43;91.51;98830.66;5087368;28;20035;-28
2022/11/23 08:39:54;;;;;;;15.63;10.00;;;;;;;12.25;92.17;98828.44;5086946;28;20495;-31
2022/11/23 08:42:20;;;;;;;17.80;10.05;;;;;;;12.33;92.63;98822.59;5086809;28;20028;-26
2022/11/23 08:44:45;;;;;;;22.55;11.60;;;;;;;12.45;91.95;98814.34;5086979;28;20035;-27
2022/11/23 08:47:11;;;;;;;22.27;10.40;;;;;;;12.45;92.63;98809.00;5087213;28;20078;-27
2022/11/23 08:49:36;;;;;;;15.18;9.43;;;;;;;12.41;92.44;98827.44;5086945;28;20543;-27
2022/11/23 08:52:02;;;;;;;16.00;9.13;;;;;;;12.49;92.15;98836.03;5087168;28;20555;-28
2022/11/23 08:54:27;;;;;;;17.25;9.13;;;;;;;12.33;92.79;98822.59;5087145;28;20024;-27
2022/11/23 08:56:52;;;;;;;16.65;8.52;;;;;;;12.42;92.67;98839.75;5087062;28;20415;-27
2022/11/23 08:59:19;;;;;;;17.05;8.38;;;;;;;12.32;92.97;98830.88;5086774;28;20039;-29
2022/11/23 09:01:45;;;;;;;15.80;8.60;;;;;;;12.46;92.39;98826.66;5086928;28;20407;-30
2022/11/23 09:04:10;;;;;;;14.63;8.82;;;;;;;12.68;91.25;98829.13;5080871;28;20035;-31
2022/11/23 09:06:36;;;;;;;14.80;9.00;;;;;;;12.56;91.53;98828.56;5086117;28;20020;-28
2022/11/23 09:09:02;;;;;;;14.48;8.80;;;;;;;12.58;92.02;98810.38;5068691;28;20038;-27
2022/11/23 09:11:27;;;;;;;16.20;8.77;;;;;;;12.61;93.19;98833.94;5087092;28;20553;-27
2022/11/23 09:13:53;;;;;;;16.98;9.63;;;;;;;12.73;92.42;98829.16;5086514;28;20032;-30
2022/11/23 09:16:21;;;;;;;17.20;9.18;;;;;;;12.47;92.64;98828.28;5087002;28;20024;-27
2022/11/23 09:18:48;;;;;;;16.87;9.17;;;;;;;12.64;91.78;98802.09;5086803;28;20499;-30
2022/11/23 09:21:14;;;;;;;22.00;10.50;;;;;;;12.70;92.71;98792.22;5087071;28;20346;-27
2022/11/23 09:23:39;;;;;;;19.15;10.73;;;;;;;12.82;92.13;98803.50;5090229;28;20115;-28
2022/11/23 09:26:05;;;;;;;21.33;9.98;;;;;;;12.88;91.38;98803.53;5071792;28;20058;-30
2022/11/23 09:28:31;;;;;;;30.92;13.93;;;;;;;12.91;92.16;98813.69;5090384;28;20085;-29
2022/11/23 09:30:56;;;;;;;28.88;18.38;;;;;;;13.00;92.66;98806.75;5089180;28;20115;-28
2022/11/23 09:33:23;;;;;;;20.98;11.50;;;;;;;12.99;91.68;98810.47;5090490;28;20748;-28
2022/11/23 09:36:00;;;;;;;19.38;9.77;;;;;;;12.93;92.11;98804.31;5090339;28;20063;-26
2022/11/23 09:38:26;;;;;;;21.73;9.85;;;;;;;12.90;92.22;98793.34;5072176;28;20092;-29
2022/11/23 09:41:23;;;;;;;18.70;10.00;;;;;;;12.90;92.92;98804.06;5071816;28;20059;-29
2022/11/23 09:44:09;;;;;;;17.17;9.75;;;;;;;12.53;93.44;98771.06;5072047;28;20032;-27
2022/11/23 09:46:56;;;;;;;61.72;33.67;;;;;;;13.00;93.65;98775.44;5072089;28;20131;-31
2022/11/23 09:49:34;;;;;;;41.08;23.17;;;;;;;13.09;93.17;98756.97;5090100;28;20134;-29
2022/11/23 09:51:59;;;;;;;46.97;25.65;;;;;;;13.32;92.20;98769.06;5090183;28;20119;-28
2022/11/23 09:54:36;;;;;;;83.53;46.63;;;;;;;13.10;93.15;98755.91;5090040;28;20157;-28
2022/11/23 09:57:03;;;;;;;36.42;15.63;;;;;;;13.36;93.29;98772.00;5090077;28;20445;-29
2022/11/23 09:59:28;;;;;;;26.80;13.73;;;;;;;13.29;93.11;98774.13;5089932;28;20046;-27
2022/11/23 10:01:55;;;;;;;21.75;11.77;;;;;;;12.97;94.91;98753.75;5071795;28;20032;-28
2022/11/23 10:04:21;;;;;;;22.27;12.23;;;;;;;12.97;94.63;98735.81;5090223;28;20415;-32
2022/11/23 10:06:57;;;;;;;27.65;12.82;;;;;;;13.20;95.24;98755.91;5071738;28;20028;-28
2022/11/23 10:09:30;;;;;;;30.63;13.18;;;;;;;13.34;95.60;98750.03;5090131;28;20067;-29
2022/11/23 10:12:23;;;;;;;70.18;32.28;;;;;;;13.64;94.54;98744.63;5089778;28;20028;-30
2022/11/23 10:15:02;;;;;;;47.60;23.35;;;;;;;13.84;93.52;98753.72;5089752;28;20511;-30
2022/11/23 10:17:48;;;;;;;76.00;32.58;;;;;;;13.91;93.09;98748.84;5089833;28;20063;-33
2022/11/23 10:20:38;;;;;;;91.35;38.25;;;;;;;14.03;92.49;98752.03;5089510;28;20414;-27
2022/11/23 10:23:30;;;;;;;44.47;22.42;;;;;;;13.84;93.23;98749.16;5090049;28;20054;-29
2022/11/23 10:25:56;;;;;;;40.80;19.67;;;;;;;13.74;93.01;98732.31;5071121;28;20032;-26
2022/11/23 10:28:22;;;;;;;38.95;17.73;;;;;;;13.91;94.01;98754.22;5089457;28;20470;-29
2022/11/23 10:30:55;;;;;;;28.23;13.70;;;;;;;14.02;92.04;98742.38;5071046;28;20047;-27
2022/11/23 10:33:30;;;;;;;21.88;12.40;;;;;;;14.03;92.21;98752.03;5070876;28;20032;-29
2022/11/23 10:35:55;;;;;;;23.90;12.43;;;;;;;14.14;91.85;98757.34;5070926;28;20020;-27
2022/11/23 10:38:25;;;;;;;18.88;11.18;;;;;;;14.13;92.26;98761.13;5089383;28;20093;-30
2022/11/23 10:40:59;;;;;;;22.13;11.13;;;;;;;14.00;92.94;98755.25;5089543;28;20078;-27
2022/11/23 10:43:47;;;;;;;23.15;11.35;;;;;;;13.95;92.24;98747.22;5089231;28;20032;-28
2022/11/23 10:46:36;;;;;;;23.30;13.45;;;;;;;13.94;92.69;98758.25;5088889;28;20048;-29
2022/11/23 10:49:12;;;;;;;26.17;13.00;;;;;;;14.13;92.50;98755.75;5070578;28;20726;-27
2022/11/23 10:51:38;;;;;;;52.28;23.65;;;;;;;13.95;92.96;98738.38;5089255;28;20491;-27
2022/11/23 10:54:16;;;;;;;25.63;13.50;;;;;;;14.16;91.60;98736.44;5088808;28;20032;-29
2022/11/23 10:56:47;;;;;;;25.20;12.98;;;;;;;14.35;90.49;98731.25;5089439;28;20779;-27
2022/11/23 10:59:38;;;;;;;28.73;14.05;;;;;;;14.38;89.75;98742.22;5089068;28;20032;-30
2022/11/23 11:02:20;;;;;;;28.98;14.27;;;;;;;14.26;91.23;98739.88;5070239;28;20550;-30
2022/11/23 11:04:48;;;;;;;22.85;12.82;;;;;;;14.41;90.44;98741.69;5070622;28;20032;-27
2022/11/23 11:07:23;;;;;;;36.13;19.73;;;;;;;14.56;89.85;98753.44;5089143;28;20024;-28
2022/11/23 11:10:00;;;;;;;22.38;13.90;;;;;;;14.51;88.75;98748.09;5070292;28;20301;-27
2022/11/23 11:12:28;;;;;;;24.08;12.70;;;;;;;14.21;89.86;98741.78;5089068;28;20483;-29
2022/11/23 11:15:09;;;;;;;18.17;10.82;;;;;;;14.46;89.43;98738.16;5089021;28;20506;-27
2022/11/23 11:17:35;;;;;;;49.28;29.17;;;;;;;14.79;88.26;98736.66;5088992;28;20103;-28
2022/11/23 11:20:23;;;;;;;20.73;12.15;;;;;;;15.02;86.88;98728.97;5088371;28;20034;-27
2022/11/23 11:22:48;;;;;;;22.73;12.00;;;;;;;15.26;86.48;98716.41;5088845;28;20032;-27